sensor_id;sensor_type;location;lat;lon;timestamp;temperature;humidity
17174;DHT22;8702;48.130;-1.696;2023-06-10T00:02:08;22.00;99.90
17174;DHT22;8702;48.130;-1.696;2023-06-10T00:04:36;22.00;99.90
17174;DHT22;8702;48.130;-1.696;2023-06-10T00:07:03;22.00;99.90
17174;DHT22;8702;48.130;-1.696;2023-06-10T00:09:34;21.90;99.90
17174;DHT22;8702;48.130;-1.696;2023-06-10T00:12:02;21.80;99.90
17174;DHT22;8702;48.130;-1.696;2023-06-10T00:14:30;21.80;99.90
17174;DHT22;8702;48.130;-1.696;2023-06-10T00:16:57;21.80;99.90
17174;DHT22;8702;48.130;-1.696;2023-06-10T00:19:24;21.70;99.90
17174;DHT22;8702;48.130;-1.696;2023-06-10T00:21:55;21.70;99.90
17174;DHT22;8702;48.130;-1.696;2023-06-10T00:24:23;21.60;99.90
17174;DHT22;8702;48.130;-1.696;2023-06-10T00:26:49;21.60;99.90
17174;DHT22;8702;48.130;-1.696;2023-06-10T00:29:16;21.60;99.90
17174;DHT22;8702;48.130;-1.696;2023-06-10T00:31:45;21.60;99.90
17174;DHT22;8702;48.130;-1.696;2023-06-10T00:34:12;21.70;99.90
17174;DHT22;8702;48.130;-1.696;2023-06-10T00:36:39;21.70;99.90
17174;DHT22;8702;48.130;-1.696;2023-06-10T00:39:06;21.60;99.90
17174;DHT22;8702;48.130;-1.696;2023-06-10T00:41:33;21.50;99.90
17174;DHT22;8702;48.130;-1.696;2023-06-10T00:44:00;21.50;99.90
17174;DHT22;8702;48.130;-1.696;2023-06-10T00:46:27;21.60;99.90
17174;DHT22;8702;48.130;-1.696;2023-06-10T00:48:56;21.50;99.90
17174;DHT22;8702;48.130;-1.696;2023-06-10T00:51:23;21.40;99.90
17174;DHT22;8702;48.130;-1.696;2023-06-10T00:53:51;21.40;99.90
17174;DHT22;8702;48.130;-1.696;2023-06-10T00:56:18;21.30;99.90
17174;DHT22;8702;48.130;-1.696;2023-06-10T00:58:45;21.30;99.90
17174;DHT22;8702;48.130;-1.696;2023-06-10T01:01:14;21.20;99.90
17174;DHT22;8702;48.130;-1.696;2023-06-10T01:03:41;21.20;99.90
17174;DHT22;8702;48.130;-1.696;2023-06-10T01:06:18;21.00;99.90
17174;DHT22;8702;48.130;-1.696;2023-06-10T01:08:53;20.90;99.90
17174;DHT22;8702;48.130;-1.696;2023-06-10T01:11:28;21.10;99.90
17174;DHT22;8702;48.130;-1.696;2023-06-10T01:13:58;21.10;99.90
17174;DHT22;8702;48.130;-1.696;2023-06-10T01:16:25;21.20;99.90
17174;DHT22;8702;48.130;-1.696;2023-06-10T01:18:52;21.10;99.90
17174;DHT22;8702;48.130;-1.696;2023-06-10T01:21:22;21.10;99.90
17174;DHT22;8702;48.130;-1.696;2023-06-10T01:23:51;21.20;99.90
17174;DHT22;8702;48.130;-1.696;2023-06-10T01:26:22;21.30;99.90
17174;DHT22;8702;48.130;-1.696;2023-06-10T01:28:54;21.40;99.90
17174;DHT22;8702;48.130;-1.696;2023-06-10T01:31:28;21.40;99.90
17174;DHT22;8702;48.130;-1.696;2023-06-10T01:34:00;21.40;99.90
17174;DHT22;8702;48.130;-1.696;2023-06-10T01:36:29;21.50;99.90
17174;DHT22;8702;48.130;-1.696;2023-06-10T01:38:58;21.50;99.90
17174;DHT22;8702;48.130;-1.696;2023-06-10T01:41:26;21.50;99.90
17174;DHT22;8702;48.130;-1.696;2023-06-10T01:43:54;21.50;99.90
17174;DHT22;8702;48.130;-1.696;2023-06-10T01:46:21;21.40;99.90
17174;DHT22;8702;48.130;-1.696;2023-06-10T01:48:48;21.40;99.90
17174;DHT22;8702;48.130;-1.696;2023-06-10T01:51:15;21.30;99.90
17174;DHT22;8702;48.130;-1.696;2023-06-10T01:53:43;21.30;99.90
17174;DHT22;8702;48.130;-1.696;2023-06-10T01:56:10;21.30;99.90
17174;DHT22;8702;48.130;-1.696;2023-06-10T01:58:42;21.30;99.90
17174;DHT22;8702;48.130;-1.696;2023-06-10T02:01:09;21.30;99.90
17174;DHT22;8702;48.130;-1.696;2023-06-10T02:03:36;21.30;99.90
17174;DHT22;8702;48.130;-1.696;2023-06-10T02:06:04;21.30;99.90
17174;DHT22;8702;48.130;-1.696;2023-06-10T02:08:30;21.40;99.90
17174;DHT22;8702;48.130;-1.696;2023-06-10T02:10:59;21.40;99.90
17174;DHT22;8702;48.130;-1.696;2023-06-10T02:13:26;21.40;99.90
17174;DHT22;8702;48.130;-1.696;2023-06-10T02:15:52;21.40;99.90
17174;DHT22;8702;48.130;-1.696;2023-06-10T02:18:20;21.50;99.90
17174;DHT22;8702;48.130;-1.696;2023-06-10T02:20:47;21.50;99.90
17174;DHT22;8702;48.130;-1.696;2023-06-10T02:23:14;21.40;99.90
17174;DHT22;8702;48.130;-1.696;2023-06-10T02:25:41;21.40;99.90
17174;DHT22;8702;48.130;-1.696;2023-06-10T02:28:09;21.30;99.90
17174;DHT22;8702;48.130;-1.696;2023-06-10T02:30:39;21.30;99.90
17174;DHT22;8702;48.130;-1.696;2023-06-10T02:33:06;21.20;99.90
17174;DHT22;8702;48.130;-1.696;2023-06-10T02:35:36;21.10;99.90
17174;DHT22;8702;48.130;-1.696;2023-06-10T02:38:03;21.00;99.90
17174;DHT22;8702;48.130;-1.696;2023-06-10T02:40:30;21.00;99.90
17174;DHT22;8702;48.130;-1.696;2023-06-10T02:42:57;21.00;99.90
17174;DHT22;8702;48.130;-1.696;2023-06-10T02:45:26;21.10;99.90
17174;DHT22;8702;48.130;-1.696;2023-06-10T02:47:53;21.10;99.90
17174;DHT22;8702;48.130;-1.696;2023-06-10T02:50:20;21.20;99.90
17174;DHT22;8702;48.130;-1.696;2023-06-10T02:52:48;21.20;99.90
17174;DHT22;8702;48.130;-1.696;2023-06-10T02:55:16;21.20;99.90
17174;DHT22;8702;48.130;-1.696;2023-06-10T02:57:43;21.30;99.90
17174;DHT22;8702;48.130;-1.696;2023-06-10T03:00:11;21.30;99.90
17174;DHT22;8702;48.130;-1.696;2023-06-10T03:02:41;21.30;99.90
17174;DHT22;8702;48.130;-1.696;2023-06-10T03:05:08;21.30;99.90
17174;DHT22;8702;48.130;-1.696;2023-06-10T03:07:36;21.20;99.90
17174;DHT22;8702;48.130;-1.696;2023-06-10T03:10:04;21.10;99.90
17174;DHT22;8702;48.130;-1.696;2023-06-10T03:12:31;21.00;99.90
17174;DHT22;8702;48.130;-1.696;2023-06-10T03:14:58;20.90;99.90
17174;DHT22;8702;48.130;-1.696;2023-06-10T03:17:25;21.00;99.90
17174;DHT22;8702;48.130;-1.696;2023-06-10T03:19:53;21.00;99.90
17174;DHT22;8702;48.130;-1.696;2023-06-10T03:22:21;21.10;99.90
17174;DHT22;8702;48.130;-1.696;2023-06-10T03:24:48;21.10;99.90
17174;DHT22;8702;48.130;-1.696;2023-06-10T03:27:16;21.10;99.90
17174;DHT22;8702;48.130;-1.696;2023-06-10T03:29:43;21.00;99.90
17174;DHT22;8702;48.130;-1.696;2023-06-10T03:32:10;20.90;99.90
17174;DHT22;8702;48.130;-1.696;2023-06-10T03:34:37;20.70;99.90
17174;DHT22;8702;48.130;-1.696;2023-06-10T03:37:06;21.00;99.90
17174;DHT22;8702;48.130;-1.696;2023-06-10T03:39:33;21.00;99.90
17174;DHT22;8702;48.130;-1.696;2023-06-10T03:42:00;20.90;99.90
17174;DHT22;8702;48.130;-1.696;2023-06-10T03:44:27;21.00;99.90
17174;DHT22;8702;48.130;-1.696;2023-06-10T03:46:54;20.90;99.90
17174;DHT22;8702;48.130;-1.696;2023-06-10T03:49:21;20.70;99.90
17174;DHT22;8702;48.130;-1.696;2023-06-10T03:51:52;20.80;99.90
17174;DHT22;8702;48.130;-1.696;2023-06-10T03:54:21;20.70;99.90
17174;DHT22;8702;48.130;-1.696;2023-06-10T03:56:47;20.70;99.90
17174;DHT22;8702;48.130;-1.696;2023-06-10T03:59:15;20.60;99.90
17174;DHT22;8702;48.130;-1.696;2023-06-10T04:01:42;20.70;99.90
17174;DHT22;8702;48.130;-1.696;2023-06-10T04:04:09;20.70;99.90
17174;DHT22;8702;48.130;-1.696;2023-06-10T04:06:36;20.70;99.90
17174;DHT22;8702;48.130;-1.696;2023-06-10T04:09:06;20.70;99.90
17174;DHT22;8702;48.130;-1.696;2023-06-10T04:11:36;20.60;99.90
17174;DHT22;8702;48.130;-1.696;2023-06-10T04:14:03;20.60;99.90
17174;DHT22;8702;48.130;-1.696;2023-06-10T04:16:30;20.40;99.90
17174;DHT22;8702;48.130;-1.696;2023-06-10T04:18:58;20.40;99.90
17174;DHT22;8702;48.130;-1.696;2023-06-10T04:21:25;20.40;99.90
17174;DHT22;8702;48.130;-1.696;2023-06-10T04:23:52;20.30;99.90
17174;DHT22;8702;48.130;-1.696;2023-06-10T04:26:19;20.40;99.90
17174;DHT22;8702;48.130;-1.696;2023-06-10T04:28:47;20.40;99.90
17174;DHT22;8702;48.130;-1.696;2023-06-10T04:31:14;20.40;99.90
17174;DHT22;8702;48.130;-1.696;2023-06-10T04:33:41;20.40;99.90
17174;DHT22;8702;48.130;-1.696;2023-06-10T04:36:08;20.30;99.90
17174;DHT22;8702;48.130;-1.696;2023-06-10T04:38:35;20.30;99.90
17174;DHT22;8702;48.130;-1.696;2023-06-10T04:41:01;20.40;99.90
17174;DHT22;8702;48.130;-1.696;2023-06-10T04:43:29;20.40;99.90
17174;DHT22;8702;48.130;-1.696;2023-06-10T04:45:57;20.60;99.90
17174;DHT22;8702;48.130;-1.696;2023-06-10T04:48:25;20.60;99.90
17174;DHT22;8702;48.130;-1.696;2023-06-10T04:50:52;20.40;99.90
17174;DHT22;8702;48.130;-1.696;2023-06-10T04:53:19;20.20;99.90
17174;DHT22;8702;48.130;-1.696;2023-06-10T04:55:46;20.20;99.90
17174;DHT22;8702;48.130;-1.696;2023-06-10T04:58:13;20.10;99.90
17174;DHT22;8702;48.130;-1.696;2023-06-10T05:00:41;20.20;99.90
17174;DHT22;8702;48.130;-1.696;2023-06-10T05:03:10;20.30;99.90
17174;DHT22;8702;48.130;-1.696;2023-06-10T05:05:37;20.30;99.90
17174;DHT22;8702;48.130;-1.696;2023-06-10T05:08:04;20.40;99.90
17174;DHT22;8702;48.130;-1.696;2023-06-10T05:10:31;20.50;99.90
17174;DHT22;8702;48.130;-1.696;2023-06-10T05:13:00;20.60;99.90
17174;DHT22;8702;48.130;-1.696;2023-06-10T05:15:28;20.70;99.90
17174;DHT22;8702;48.130;-1.696;2023-06-10T05:17:57;20.60;99.90
17174;DHT22;8702;48.130;-1.696;2023-06-10T05:20:25;20.50;99.90
17174;DHT22;8702;48.130;-1.696;2023-06-10T05:22:54;20.60;99.90
17174;DHT22;8702;48.130;-1.696;2023-06-10T05:25:21;20.60;99.90
17174;DHT22;8702;48.130;-1.696;2023-06-10T05:27:48;20.70;99.90
17174;DHT22;8702;48.130;-1.696;2023-06-10T05:30:15;20.60;99.90
17174;DHT22;8702;48.130;-1.696;2023-06-10T05:32:44;20.70;99.90
17174;DHT22;8702;48.130;-1.696;2023-06-10T05:35:11;20.80;99.90
17174;DHT22;8702;48.130;-1.696;2023-06-10T05:37:41;20.90;99.90
17174;DHT22;8702;48.130;-1.696;2023-06-10T05:40:09;20.90;99.90
17174;DHT22;8702;48.130;-1.696;2023-06-10T05:42:36;21.00;99.90
17174;DHT22;8702;48.130;-1.696;2023-06-10T05:45:03;21.00;99.90
17174;DHT22;8702;48.130;-1.696;2023-06-10T05:47:32;21.00;99.90
17174;DHT22;8702;48.130;-1.696;2023-06-10T05:49:58;21.00;99.90
17174;DHT22;8702;48.130;-1.696;2023-06-10T05:52:26;20.90;99.90
17174;DHT22;8702;48.130;-1.696;2023-06-10T05:54:54;20.90;99.90
17174;DHT22;8702;48.130;-1.696;2023-06-10T05:57:22;20.90;99.90
17174;DHT22;8702;48.130;-1.696;2023-06-10T05:59:48;21.00;99.90
17174;DHT22;8702;48.130;-1.696;2023-06-10T06:02:15;20.90;99.90
17174;DHT22;8702;48.130;-1.696;2023-06-10T06:04:42;20.90;99.90
17174;DHT22;8702;48.130;-1.696;2023-06-10T06:07:09;20.90;99.90
17174;DHT22;8702;48.130;-1.696;2023-06-10T06:09:36;20.70;99.90
17174;DHT22;8702;48.130;-1.696;2023-06-10T06:12:05;20.80;99.90
17174;DHT22;8702;48.130;-1.696;2023-06-10T06:14:37;20.90;99.90
17174;DHT22;8702;48.130;-1.696;2023-06-10T06:17:05;20.70;99.90
17174;DHT22;8702;48.130;-1.696;2023-06-10T06:19:32;20.60;99.90
17174;DHT22;8702;48.130;-1.696;2023-06-10T06:21:58;20.50;99.90
17174;DHT22;8702;48.130;-1.696;2023-06-10T06:24:25;20.50;99.90
17174;DHT22;8702;48.130;-1.696;2023-06-10T06:26:52;20.60;99.90
17174;DHT22;8702;48.130;-1.696;2023-06-10T06:29:21;20.50;99.90
17174;DHT22;8702;48.130;-1.696;2023-06-10T06:31:48;20.40;99.90
17174;DHT22;8702;48.130;-1.696;2023-06-10T06:34:14;20.40;99.90
17174;DHT22;8702;48.130;-1.696;2023-06-10T06:36:41;20.50;99.90
17174;DHT22;8702;48.130;-1.696;2023-06-10T06:39:08;20.50;99.90
17174;DHT22;8702;48.130;-1.696;2023-06-10T06:41:35;20.50;99.90
17174;DHT22;8702;48.130;-1.696;2023-06-10T06:44:02;20.50;99.90
17174;DHT22;8702;48.130;-1.696;2023-06-10T06:46:30;20.50;99.90
17174;DHT22;8702;48.130;-1.696;2023-06-10T06:48:57;20.50;99.90
17174;DHT22;8702;48.130;-1.696;2023-06-10T06:51:24;20.40;99.90
17174;DHT22;8702;48.130;-1.696;2023-06-10T06:53:51;20.40;99.90
17174;DHT22;8702;48.130;-1.696;2023-06-10T06:56:20;20.40;99.90
17174;DHT22;8702;48.130;-1.696;2023-06-10T06:58:47;20.50;99.90
17174;DHT22;8702;48.130;-1.696;2023-06-10T07:01:14;20.60;99.90
17174;DHT22;8702;48.130;-1.696;2023-06-10T07:03:42;20.60;99.90
17174;DHT22;8702;48.130;-1.696;2023-06-10T07:06:09;20.60;99.90
17174;DHT22;8702;48.130;-1.696;2023-06-10T07:08:37;20.70;99.90
17174;DHT22;8702;48.130;-1.696;2023-06-10T07:11:03;20.70;99.90
17174;DHT22;8702;48.130;-1.696;2023-06-10T07:13:30;20.80;99.90
17174;DHT22;8702;48.130;-1.696;2023-06-10T07:15:57;20.80;99.90
17174;DHT22;8702;48.130;-1.696;2023-06-10T07:18:24;20.70;99.90
17174;DHT22;8702;48.130;-1.696;2023-06-10T07:20:52;20.80;99.90
17174;DHT22;8702;48.130;-1.696;2023-06-10T07:23:19;20.80;99.90
17174;DHT22;8702;48.130;-1.696;2023-06-10T07:25:46;20.70;99.90
17174;DHT22;8702;48.130;-1.696;2023-06-10T07:28:13;20.70;99.90
17174;DHT22;8702;48.130;-1.696;2023-06-10T07:30:40;20.80;99.90
17174;DHT22;8702;48.130;-1.696;2023-06-10T07:33:07;20.80;99.90
17174;DHT22;8702;48.130;-1.696;2023-06-10T07:35:36;20.80;99.90
17174;DHT22;8702;48.130;-1.696;2023-06-10T07:38:04;20.80;99.90
17174;DHT22;8702;48.130;-1.696;2023-06-10T07:40:31;20.80;99.90
17174;DHT22;8702;48.130;-1.696;2023-06-10T07:42:59;20.90;99.90
17174;DHT22;8702;48.130;-1.696;2023-06-10T07:45:26;21.00;99.90
17174;DHT22;8702;48.130;-1.696;2023-06-10T07:47:53;20.90;99.90
17174;DHT22;8702;48.130;-1.696;2023-06-10T07:50:21;21.00;99.90
17174;DHT22;8702;48.130;-1.696;2023-06-10T07:52:48;21.00;99.90
17174;DHT22;8702;48.130;-1.696;2023-06-10T07:55:16;21.10;99.90
17174;DHT22;8702;48.130;-1.696;2023-06-10T07:57:43;21.20;99.90
17174;DHT22;8702;48.130;-1.696;2023-06-10T08:00:11;21.00;99.90
17174;DHT22;8702;48.130;-1.696;2023-06-10T08:02:38;21.40;99.90
17174;DHT22;8702;48.130;-1.696;2023-06-10T08:05:05;21.50;99.90
17174;DHT22;8702;48.130;-1.696;2023-06-10T08:07:32;21.50;99.90
17174;DHT22;8702;48.130;-1.696;2023-06-10T08:10:00;21.80;99.90
17174;DHT22;8702;48.130;-1.696;2023-06-10T08:12:29;21.80;99.90
17174;DHT22;8702;48.130;-1.696;2023-06-10T08:14:56;21.60;99.90
17174;DHT22;8702;48.130;-1.696;2023-06-10T08:17:23;21.70;99.90
17174;DHT22;8702;48.130;-1.696;2023-06-10T08:19:50;21.70;99.90
17174;DHT22;8702;48.130;-1.696;2023-06-10T08:22:17;21.70;99.90
17174;DHT22;8702;48.130;-1.696;2023-06-10T08:24:45;21.70;99.90
17174;DHT22;8702;48.130;-1.696;2023-06-10T08:27:12;21.70;99.90
17174;DHT22;8702;48.130;-1.696;2023-06-10T08:29:40;21.70;99.90
17174;DHT22;8702;48.130;-1.696;2023-06-10T08:32:07;21.70;99.90
17174;DHT22;8702;48.130;-1.696;2023-06-10T08:34:34;21.70;99.90
17174;DHT22;8702;48.130;-1.696;2023-06-10T08:37:02;21.70;99.90
17174;DHT22;8702;48.130;-1.696;2023-06-10T08:39:29;21.70;99.90
17174;DHT22;8702;48.130;-1.696;2023-06-10T08:42:04;21.60;99.90
17174;DHT22;8702;48.130;-1.696;2023-06-10T08:44:35;21.60;99.90
17174;DHT22;8702;48.130;-1.696;2023-06-10T08:47:10;21.80;99.90
17174;DHT22;8702;48.130;-1.696;2023-06-10T08:49:43;21.90;99.90
17174;DHT22;8702;48.130;-1.696;2023-06-10T08:52:14;21.90;99.90
17174;DHT22;8702;48.130;-1.696;2023-06-10T08:54:43;21.90;99.90
17174;DHT22;8702;48.130;-1.696;2023-06-10T08:57:13;22.00;99.90
17174;DHT22;8702;48.130;-1.696;2023-06-10T08:59:41;21.70;99.90
17174;DHT22;8702;48.130;-1.696;2023-06-10T09:02:10;21.70;99.90
17174;DHT22;8702;48.130;-1.696;2023-06-10T09:04:37;21.70;99.90
17174;DHT22;8702;48.130;-1.696;2023-06-10T09:07:05;21.90;99.90
17174;DHT22;8702;48.130;-1.696;2023-06-10T09:09:34;21.90;99.90
17174;DHT22;8702;48.130;-1.696;2023-06-10T09:12:01;21.90;99.90
17174;DHT22;8702;48.130;-1.696;2023-06-10T09:14:28;21.80;99.90
17174;DHT22;8702;48.130;-1.696;2023-06-10T09:16:55;21.50;99.90
17174;DHT22;8702;48.130;-1.696;2023-06-10T09:19:25;21.70;99.90
17174;DHT22;8702;48.130;-1.696;2023-06-10T09:21:53;21.70;99.90
17174;DHT22;8702;48.130;-1.696;2023-06-10T09:24:22;21.70;99.90
17174;DHT22;8702;48.130;-1.696;2023-06-10T09:26:49;21.70;99.90
17174;DHT22;8702;48.130;-1.696;2023-06-10T09:29:16;21.70;99.90
17174;DHT22;8702;48.130;-1.696;2023-06-10T09:31:44;21.70;99.90
17174;DHT22;8702;48.130;-1.696;2023-06-10T09:34:12;21.80;99.90
17174;DHT22;8702;48.130;-1.696;2023-06-10T09:36:41;21.80;99.90
17174;DHT22;8702;48.130;-1.696;2023-06-10T09:39:14;21.80;99.90
17174;DHT22;8702;48.130;-1.696;2023-06-10T09:41:43;21.80;99.90
17174;DHT22;8702;48.130;-1.696;2023-06-10T09:44:12;21.80;99.90
17174;DHT22;8702;48.130;-1.696;2023-06-10T09:46:40;21.80;99.90
17174;DHT22;8702;48.130;-1.696;2023-06-10T09:49:06;21.90;99.90
17174;DHT22;8702;48.130;-1.696;2023-06-10T09:51:34;21.70;99.90
17174;DHT22;8702;48.130;-1.696;2023-06-10T09:54:03;21.90;99.90
17174;DHT22;8702;48.130;-1.696;2023-06-10T09:56:34;21.80;99.90
17174;DHT22;8702;48.130;-1.696;2023-06-10T09:59:02;21.90;99.90
17174;DHT22;8702;48.130;-1.696;2023-06-10T10:01:30;21.90;99.90
17174;DHT22;8702;48.130;-1.696;2023-06-10T10:03:59;21.90;99.90
17174;DHT22;8702;48.130;-1.696;2023-06-10T10:06:26;21.90;99.90
17174;DHT22;8702;48.130;-1.696;2023-06-10T10:08:54;22.00;99.90
17174;DHT22;8702;48.130;-1.696;2023-06-10T10:11:23;21.90;99.90
17174;DHT22;8702;48.130;-1.696;2023-06-10T10:13:52;22.00;99.90
17174;DHT22;8702;48.130;-1.696;2023-06-10T10:16:21;22.00;99.90
17174;DHT22;8702;48.130;-1.696;2023-06-10T10:18:53;22.00;99.90
17174;DHT22;8702;48.130;-1.696;2023-06-10T10:21:23;22.10;99.90
17174;DHT22;8702;48.130;-1.696;2023-06-10T10:23:55;22.30;99.90
17174;DHT22;8702;48.130;-1.696;2023-06-10T10:26:27;22.40;99.90
17174;DHT22;8702;48.130;-1.696;2023-06-10T10:29:05;22.40;99.90
17174;DHT22;8702;48.130;-1.696;2023-06-10T10:31:38;22.40;99.90
17174;DHT22;8702;48.130;-1.696;2023-06-10T10:34:07;22.60;99.90
17174;DHT22;8702;48.130;-1.696;2023-06-10T10:36:35;22.60;99.90
17174;DHT22;8702;48.130;-1.696;2023-06-10T10:39:04;22.60;99.90
17174;DHT22;8702;48.130;-1.696;2023-06-10T10:41:33;22.60;99.90
17174;DHT22;8702;48.130;-1.696;2023-06-10T10:44:01;22.60;99.90
17174;DHT22;8702;48.130;-1.696;2023-06-10T10:46:31;22.60;99.90
17174;DHT22;8702;48.130;-1.696;2023-06-10T10:49:08;22.60;99.90
17174;DHT22;8702;48.130;-1.696;2023-06-10T10:51:35;22.50;99.90
17174;DHT22;8702;48.130;-1.696;2023-06-10T10:54:12;22.50;99.90
17174;DHT22;8702;48.130;-1.696;2023-06-10T10:57:12;22.40;99.90
17174;DHT22;8702;48.130;-1.696;2023-06-10T11:00:00;22.40;99.90
17174;DHT22;8702;48.130;-1.696;2023-06-10T11:02:39;22.50;99.90
17174;DHT22;8702;48.130;-1.696;2023-06-10T11:05:10;22.50;99.90
17174;DHT22;8702;48.130;-1.696;2023-06-10T11:07:37;22.50;99.90
17174;DHT22;8702;48.130;-1.696;2023-06-10T11:10:07;22.60;99.90
17174;DHT22;8702;48.130;-1.696;2023-06-10T11:12:52;22.60;99.90
17174;DHT22;8702;48.130;-1.696;2023-06-10T11:15:20;22.60;99.90
17174;DHT22;8702;48.130;-1.696;2023-06-10T11:18:11;22.70;99.90
17174;DHT22;8702;48.130;-1.696;2023-06-10T11:20:54;22.60;99.90
17174;DHT22;8702;48.130;-1.696;2023-06-10T11:23:26;22.60;99.90
17174;DHT22;8702;48.130;-1.696;2023-06-10T11:26:13;22.70;99.90
17174;DHT22;8702;48.130;-1.696;2023-06-10T11:28:42;22.80;99.90
17174;DHT22;8702;48.130;-1.696;2023-06-10T11:31:28;22.90;99.90
17174;DHT22;8702;48.130;-1.696;2023-06-10T11:33:57;22.90;99.90
17174;DHT22;8702;48.130;-1.696;2023-06-10T11:36:24;23.00;99.90
17174;DHT22;8702;48.130;-1.696;2023-06-10T11:38:56;22.80;99.90
17174;DHT22;8702;48.130;-1.696;2023-06-10T11:41:24;22.60;99.90
17174;DHT22;8702;48.130;-1.696;2023-06-10T11:43:53;22.80;99.90
17174;DHT22;8702;48.130;-1.696;2023-06-10T11:46:21;22.70;99.90
17174;DHT22;8702;48.130;-1.696;2023-06-10T11:48:49;22.90;99.90
17174;DHT22;8702;48.130;-1.696;2023-06-10T11:51:16;22.80;99.90
17174;DHT22;8702;48.130;-1.696;2023-06-10T11:53:44;22.90;99.90
17174;DHT22;8702;48.130;-1.696;2023-06-10T11:56:11;23.10;99.90
17174;DHT22;8702;48.130;-1.696;2023-06-10T11:58:41;23.20;99.90
17174;DHT22;8702;48.130;-1.696;2023-06-10T12:01:19;23.10;99.90
17174;DHT22;8702;48.130;-1.696;2023-06-10T12:03:56;23.20;99.90
17174;DHT22;8702;48.130;-1.696;2023-06-10T12:06:23;23.20;99.90
17174;DHT22;8702;48.130;-1.696;2023-06-10T12:08:50;23.30;99.90
17174;DHT22;8702;48.130;-1.696;2023-06-10T12:11:17;23.40;99.90
17174;DHT22;8702;48.130;-1.696;2023-06-10T12:13:46;23.30;99.90
17174;DHT22;8702;48.130;-1.696;2023-06-10T12:16:16;23.50;99.90
17174;DHT22;8702;48.130;-1.696;2023-06-10T12:18:45;23.60;99.90
17174;DHT22;8702;48.130;-1.696;2023-06-10T12:21:17;23.60;99.90
17174;DHT22;8702;48.130;-1.696;2023-06-10T12:24:07;23.60;99.90
17174;DHT22;8702;48.130;-1.696;2023-06-10T12:26:40;23.70;99.90
17174;DHT22;8702;48.130;-1.696;2023-06-10T12:29:21;23.80;99.90
17174;DHT22;8702;48.130;-1.696;2023-06-10T12:31:55;24.00;99.90
17174;DHT22;8702;48.130;-1.696;2023-06-10T12:34:29;24.00;99.90
17174;DHT22;8702;48.130;-1.696;2023-06-10T12:36:57;24.00;99.90
17174;DHT22;8702;48.130;-1.696;2023-06-10T12:39:24;24.10;99.90
17174;DHT22;8702;48.130;-1.696;2023-06-10T12:41:52;24.10;99.90
17174;DHT22;8702;48.130;-1.696;2023-06-10T12:44:28;24.20;99.90
17174;DHT22;8702;48.130;-1.696;2023-06-10T12:46:57;24.30;99.90
17174;DHT22;8702;48.130;-1.696;2023-06-10T12:49:24;24.40;99.90
17174;DHT22;8702;48.130;-1.696;2023-06-10T12:51:52;24.30;99.90
17174;DHT22;8702;48.130;-1.696;2023-06-10T12:54:19;24.40;99.90
17174;DHT22;8702;48.130;-1.696;2023-06-10T12:56:45;24.60;99.90
17174;DHT22;8702;48.130;-1.696;2023-06-10T12:59:13;24.70;99.90
17174;DHT22;8702;48.130;-1.696;2023-06-10T13:18:57;24.50;99.90
17174;DHT22;8702;48.130;-1.696;2023-06-10T13:21:25;24.30;99.90
17174;DHT22;8702;48.130;-1.696;2023-06-10T13:23:52;24.10;99.90
17174;DHT22;8702;48.130;-1.696;2023-06-10T13:26:19;24.00;99.90
17174;DHT22;8702;48.130;-1.696;2023-06-10T13:28:47;24.00;99.90
17174;DHT22;8702;48.130;-1.696;2023-06-10T13:31:14;24.00;99.90
17174;DHT22;8702;48.130;-1.696;2023-06-10T13:33:41;24.10;99.90
17174;DHT22;8702;48.130;-1.696;2023-06-10T13:36:09;24.10;99.90
17174;DHT22;8702;48.130;-1.696;2023-06-10T13:38:37;24.20;99.90
17174;DHT22;8702;48.130;-1.696;2023-06-10T13:41:04;23.90;99.90
17174;DHT22;8702;48.130;-1.696;2023-06-10T13:43:32;24.00;99.90
17174;DHT22;8702;48.130;-1.696;2023-06-10T13:45:59;23.90;99.90
17174;DHT22;8702;48.130;-1.696;2023-06-10T13:48:26;23.90;99.90
17174;DHT22;8702;48.130;-1.696;2023-06-10T13:50:55;23.70;99.90
17174;DHT22;8702;48.130;-1.696;2023-06-10T13:53:22;23.50;99.90
17174;DHT22;8702;48.130;-1.696;2023-06-10T13:55:50;23.50;99.90
17174;DHT22;8702;48.130;-1.696;2023-06-10T13:58:17;23.70;99.90
17174;DHT22;8702;48.130;-1.696;2023-06-10T14:00:44;23.90;99.90
17174;DHT22;8702;48.130;-1.696;2023-06-10T14:03:11;23.90;99.90
17174;DHT22;8702;48.130;-1.696;2023-06-10T14:05:38;23.80;99.90
17174;DHT22;8702;48.130;-1.696;2023-06-10T14:08:05;23.90;99.90
17174;DHT22;8702;48.130;-1.696;2023-06-10T14:10:32;23.90;99.90
17174;DHT22;8702;48.130;-1.696;2023-06-10T14:13:01;24.20;99.90
17174;DHT22;8702;48.130;-1.696;2023-06-10T14:15:28;24.20;99.90
17174;DHT22;8702;48.130;-1.696;2023-06-10T14:17:55;24.10;99.90
17174;DHT22;8702;48.130;-1.696;2023-06-10T14:20:22;24.10;99.90
17174;DHT22;8702;48.130;-1.696;2023-06-10T14:22:51;24.10;99.90
17174;DHT22;8702;48.130;-1.696;2023-06-10T14:25:17;24.30;99.90
17174;DHT22;8702;48.130;-1.696;2023-06-10T14:27:44;24.40;99.90
17174;DHT22;8702;48.130;-1.696;2023-06-10T14:30:14;24.40;99.90
17174;DHT22;8702;48.130;-1.696;2023-06-10T14:32:41;24.40;99.90
17174;DHT22;8702;48.130;-1.696;2023-06-10T14:35:08;24.50;99.90
17174;DHT22;8702;48.130;-1.696;2023-06-10T14:37:35;24.50;99.90
17174;DHT22;8702;48.130;-1.696;2023-06-10T14:40:02;24.60;99.90
17174;DHT22;8702;48.130;-1.696;2023-06-10T14:42:30;24.50;99.90
17174;DHT22;8702;48.130;-1.696;2023-06-10T14:44:57;24.40;99.90
17174;DHT22;8702;48.130;-1.696;2023-06-10T14:47:25;24.40;99.90
17174;DHT22;8702;48.130;-1.696;2023-06-10T14:49:52;24.50;99.90
17174;DHT22;8702;48.130;-1.696;2023-06-10T14:52:19;24.60;99.90
17174;DHT22;8702;48.130;-1.696;2023-06-10T14:54:46;24.80;99.90
17174;DHT22;8702;48.130;-1.696;2023-06-10T14:57:13;25.00;99.90
17174;DHT22;8702;48.130;-1.696;2023-06-10T14:59:40;25.00;99.90
17174;DHT22;8702;48.130;-1.696;2023-06-10T15:02:07;25.10;99.90
17174;DHT22;8702;48.130;-1.696;2023-06-10T15:04:35;25.10;99.90
17174;DHT22;8702;48.130;-1.696;2023-06-10T15:09:30;25.60;99.90
17174;DHT22;8702;48.130;-1.696;2023-06-10T15:11:57;25.80;99.90
17174;DHT22;8702;48.130;-1.696;2023-06-10T15:14:25;26.10;99.90
17174;DHT22;8702;48.130;-1.696;2023-06-10T15:16:52;26.20;99.90
17174;DHT22;8702;48.130;-1.696;2023-06-10T15:24:15;26.60;99.90
17174;DHT22;8702;48.130;-1.696;2023-06-10T15:26:41;26.70;99.90
17174;DHT22;8702;48.130;-1.696;2023-06-10T15:29:08;26.70;99.90
17174;DHT22;8702;48.130;-1.696;2023-06-10T15:31:35;27.00;99.90
17174;DHT22;8702;48.130;-1.696;2023-06-10T15:34:03;27.00;99.90
17174;DHT22;8702;48.130;-1.696;2023-06-10T15:36:30;27.00;99.90
17174;DHT22;8702;48.130;-1.696;2023-06-10T15:39:01;26.90;99.90
17174;DHT22;8702;48.130;-1.696;2023-06-10T15:41:28;26.70;99.90
17174;DHT22;8702;48.130;-1.696;2023-06-10T15:43:56;26.40;99.90
17174;DHT22;8702;48.130;-1.696;2023-06-10T15:46:25;26.40;99.90
17174;DHT22;8702;48.130;-1.696;2023-06-10T15:48:52;26.40;99.90
17174;DHT22;8702;48.130;-1.696;2023-06-10T15:51:20;26.50;99.90
17174;DHT22;8702;48.130;-1.696;2023-06-10T15:53:47;26.60;99.90
17174;DHT22;8702;48.130;-1.696;2023-06-10T15:56:15;26.70;99.90
17174;DHT22;8702;48.130;-1.696;2023-06-10T15:58:42;26.70;99.90
17174;DHT22;8702;48.130;-1.696;2023-06-10T16:01:09;26.80;99.90
17174;DHT22;8702;48.130;-1.696;2023-06-10T16:03:37;27.10;99.90